sensor_id;sensor_type;location;lat;lon;timestamp;temperature;humidity
19220;DHT22;9744;49.364;7.484;2022-09-20T00:00:41;11.00;99.90
19220;DHT22;9744;49.364;7.484;2022-09-20T00:03:09;11.00;99.90
19220;DHT22;9744;49.364;7.484;2022-09-20T00:05:40;11.00;99.90
19220;DHT22;9744;49.364;7.484;2022-09-20T00:08:11;10.90;99.90
19220;DHT22;9744;49.364;7.484;2022-09-20T00:10:39;10.90;99.90
19220;DHT22;9744;49.364;7.484;2022-09-20T00:13:08;10.90;99.90
19220;DHT22;9744;49.364;7.484;2022-09-20T00:15:41;10.90;99.90
19220;DHT22;9744;49.364;7.484;2022-09-20T00:18:08;10.90;99.90
19220;DHT22;9744;49.364;7.484;2022-09-20T00:20:36;10.90;99.90
19220;DHT22;9744;49.364;7.484;2022-09-20T00:23:03;10.90;99.90
19220;DHT22;9744;49.364;7.484;2022-09-20T00:25:30;10.90;99.90
19220;DHT22;9744;49.364;7.484;2022-09-20T00:27:58;11.00;99.90
19220;DHT22;9744;49.364;7.484;2022-09-20T00:30:25;10.90;99.90
19220;DHT22;9744;49.364;7.484;2022-09-20T00:32:54;10.90;99.90
19220;DHT22;9744;49.364;7.484;2022-09-20T00:35:21;10.90;99.90
19220;DHT22;9744;49.364;7.484;2022-09-20T00:37:47;10.90;99.90
19220;DHT22;9744;49.364;7.484;2022-09-20T00:40:17;10.90;99.90
19220;DHT22;9744;49.364;7.484;2022-09-20T00:42:45;10.80;99.90
19220;DHT22;9744;49.364;7.484;2022-09-20T00:45:19;10.80;99.90
19220;DHT22;9744;49.364;7.484;2022-09-20T00:47:49;10.70;99.90
19220;DHT22;9744;49.364;7.484;2022-09-20T00:50:27;10.70;99.90
19220;DHT22;9744;49.364;7.484;2022-09-20T00:53:02;10.60;99.90
19220;DHT22;9744;49.364;7.484;2022-09-20T00:55:31;10.60;99.90
19220;DHT22;9744;49.364;7.484;2022-09-20T00:57:59;10.60;99.90
19220;DHT22;9744;49.364;7.484;2022-09-20T01:00:27;10.60;99.90
19220;DHT22;9744;49.364;7.484;2022-09-20T01:02:58;10.70;99.90
19220;DHT22;9744;49.364;7.484;2022-09-20T01:05:28;10.70;99.90
19220;DHT22;9744;49.364;7.484;2022-09-20T01:07:56;10.70;99.90
19220;DHT22;9744;49.364;7.484;2022-09-20T01:10:23;10.70;99.90
19220;DHT22;9744;49.364;7.484;2022-09-20T01:12:51;10.70;99.90
19220;DHT22;9744;49.364;7.484;2022-09-20T01:15:20;10.70;99.90
19220;DHT22;9744;49.364;7.484;2022-09-20T01:17:50;10.70;99.90
19220;DHT22;9744;49.364;7.484;2022-09-20T01:20:21;10.70;99.90
19220;DHT22;9744;49.364;7.484;2022-09-20T01:23:09;10.70;99.90
19220;DHT22;9744;49.364;7.484;2022-09-20T01:26:10;10.60;99.90
19220;DHT22;9744;49.364;7.484;2022-09-20T01:28:43;10.60;99.90
19220;DHT22;9744;49.364;7.484;2022-09-20T01:31:16;10.60;99.90
19220;DHT22;9744;49.364;7.484;2022-09-20T01:33:51;10.30;99.90
19220;DHT22;9744;49.364;7.484;2022-09-20T01:36:23;10.10;99.90
19220;DHT22;9744;49.364;7.484;2022-09-20T01:38:58;9.90;99.90
19220;DHT22;9744;49.364;7.484;2022-09-20T01:41:30;9.70;99.90
19220;DHT22;9744;49.364;7.484;2022-09-20T01:44:07;9.70;99.90
19220;DHT22;9744;49.364;7.484;2022-09-20T01:46:41;9.60;99.90
19220;DHT22;9744;49.364;7.484;2022-09-20T01:49:17;9.40;99.90
19220;DHT22;9744;49.364;7.484;2022-09-20T02:01:46;8.80;99.90
19220;DHT22;9744;49.364;7.484;2022-09-20T02:04:33;8.70;99.90
19220;DHT22;9744;49.364;7.484;2022-09-20T02:07:19;8.70;99.90
19220;DHT22;9744;49.364;7.484;2022-09-20T02:10:11;8.60;99.90
19220;DHT22;9744;49.364;7.484;2022-09-20T02:12:54;8.70;99.90
19220;DHT22;9744;49.364;7.484;2022-09-20T02:15:37;8.70;99.90
19220;DHT22;9744;49.364;7.484;2022-09-20T02:18:19;8.80;99.90
19220;DHT22;9744;49.364;7.484;2022-09-20T02:20:57;8.90;99.90
19220;DHT22;9744;49.364;7.484;2022-09-20T02:23:39;9.20;99.90
19220;DHT22;9744;49.364;7.484;2022-09-20T02:26:15;9.30;99.90
19220;DHT22;9744;49.364;7.484;2022-09-20T02:28:53;9.50;99.90
19220;DHT22;9744;49.364;7.484;2022-09-20T02:31:42;9.50;99.90
19220;DHT22;9744;49.364;7.484;2022-09-20T02:37:53;9.60;99.90
19220;DHT22;9744;49.364;7.484;2022-09-20T02:40:37;9.70;99.90
19220;DHT22;9744;49.364;7.484;2022-09-20T02:43:13;9.70;99.90
19220;DHT22;9744;49.364;7.484;2022-09-20T02:45:47;9.70;99.90
19220;DHT22;9744;49.364;7.484;2022-09-20T02:48:23;9.80;99.90
19220;DHT22;9744;49.364;7.484;2022-09-20T02:50:58;9.80;99.90
19220;DHT22;9744;49.364;7.484;2022-09-20T02:53:37;9.70;99.90
19220;DHT22;9744;49.364;7.484;2022-09-20T02:56:13;9.80;99.90
19220;DHT22;9744;49.364;7.484;2022-09-20T02:58:51;9.90;99.90
19220;DHT22;9744;49.364;7.484;2022-09-20T03:01:31;10.00;99.90
19220;DHT22;9744;49.364;7.484;2022-09-20T03:04:10;10.10;99.90
19220;DHT22;9744;49.364;7.484;2022-09-20T03:06:47;10.10;99.90
19220;DHT22;9744;49.364;7.484;2022-09-20T03:09:25;10.10;99.90
19220;DHT22;9744;49.364;7.484;2022-09-20T03:12:01;10.10;99.90
19220;DHT22;9744;49.364;7.484;2022-09-20T03:14:34;10.10;99.90
19220;DHT22;9744;49.364;7.484;2022-09-20T03:17:10;10.20;99.90
19220;DHT22;9744;49.364;7.484;2022-09-20T03:19:47;10.20;99.90
19220;DHT22;9744;49.364;7.484;2022-09-20T03:22:27;10.20;99.90
19220;DHT22;9744;49.364;7.484;2022-09-20T03:25:29;10.20;99.90
19220;DHT22;9744;49.364;7.484;2022-09-20T03:28:10;10.20;99.90
19220;DHT22;9744;49.364;7.484;2022-09-20T03:30:50;10.20;99.90
19220;DHT22;9744;49.364;7.484;2022-09-20T03:33:28;10.20;99.90
19220;DHT22;9744;49.364;7.484;2022-09-20T03:36:09;10.20;99.90
19220;DHT22;9744;49.364;7.484;2022-09-20T03:41:45;10.30;99.90
19220;DHT22;9744;49.364;7.484;2022-09-20T03:44:41;10.30;99.90
19220;DHT22;9744;49.364;7.484;2022-09-20T03:47:24;10.30;99.90
19220;DHT22;9744;49.364;7.484;2022-09-20T03:50:11;10.30;99.90
19220;DHT22;9744;49.364;7.484;2022-09-20T03:53:00;10.30;99.90
19220;DHT22;9744;49.364;7.484;2022-09-20T03:56:10;10.30;99.90
19220;DHT22;9744;49.364;7.484;2022-09-20T03:58:56;10.20;99.90
19220;DHT22;9744;49.364;7.484;2022-09-20T04:01:57;10.20;99.90
19220;DHT22;9744;49.364;7.484;2022-09-20T04:04:32;10.10;99.90
19220;DHT22;9744;49.364;7.484;2022-09-20T04:07:10;10.10;99.90
19220;DHT22;9744;49.364;7.484;2022-09-20T04:12:44;10.00;99.90
19220;DHT22;9744;49.364;7.484;2022-09-20T04:15:28;9.90;99.90
19220;DHT22;9744;49.364;7.484;2022-09-20T04:18:03;9.80;99.90
19220;DHT22;9744;49.364;7.484;2022-09-20T04:20:41;9.80;99.90
19220;DHT22;9744;49.364;7.484;2022-09-20T04:23:29;9.90;99.90
19220;DHT22;9744;49.364;7.484;2022-09-20T04:26:00;9.90;99.90
19220;DHT22;9744;49.364;7.484;2022-09-20T04:28:34;9.80;99.90
19220;DHT22;9744;49.364;7.484;2022-09-20T04:31:11;9.90;99.90
19220;DHT22;9744;49.364;7.484;2022-09-20T04:33:49;10.00;99.90
19220;DHT22;9744;49.364;7.484;2022-09-20T04:36:31;10.00;99.90
19220;DHT22;9744;49.364;7.484;2022-09-20T04:39:30;9.90;99.90
19220;DHT22;9744;49.364;7.484;2022-09-20T04:48:43;9.80;99.90
19220;DHT22;9744;49.364;7.484;2022-09-20T04:58:23;9.50;99.90
19220;DHT22;9744;49.364;7.484;2022-09-20T05:04:13;9.10;99.90
19220;DHT22;9744;49.364;7.484;2022-09-20T05:07:02;9.10;99.90
19220;DHT22;9744;49.364;7.484;2022-09-20T05:09:53;8.90;99.90
19220;DHT22;9744;49.364;7.484;2022-09-20T05:12:51;8.70;99.90
19220;DHT22;9744;49.364;7.484;2022-09-20T05:15:38;8.60;99.90
19220;DHT22;9744;49.364;7.484;2022-09-20T05:18:39;8.70;99.90
19220;DHT22;9744;49.364;7.484;2022-09-20T05:21:48;8.80;99.90
19220;DHT22;9744;49.364;7.484;2022-09-20T05:24:39;8.80;99.90
19220;DHT22;9744;49.364;7.484;2022-09-20T05:27:21;8.80;99.90
19220;DHT22;9744;49.364;7.484;2022-09-20T05:30:00;8.70;99.90
19220;DHT22;9744;49.364;7.484;2022-09-20T05:32:36;8.70;99.90
19220;DHT22;9744;49.364;7.484;2022-09-20T05:35:14;8.50;99.90
19220;DHT22;9744;49.364;7.484;2022-09-20T05:37:50;8.50;99.90
19220;DHT22;9744;49.364;7.484;2022-09-20T05:40:29;8.40;99.90
19220;DHT22;9744;49.364;7.484;2022-09-20T05:43:04;8.40;99.90
19220;DHT22;9744;49.364;7.484;2022-09-20T05:45:49;8.40;99.90
19220;DHT22;9744;49.364;7.484;2022-09-20T05:48:35;8.40;99.90
19220;DHT22;9744;49.364;7.484;2022-09-20T05:51:08;8.40;99.90
19220;DHT22;9744;49.364;7.484;2022-09-20T05:53:55;8.40;99.90
19220;DHT22;9744;49.364;7.484;2022-09-20T05:56:33;8.30;99.90
19220;DHT22;9744;49.364;7.484;2022-09-20T05:59:24;8.30;99.90
19220;DHT22;9744;49.364;7.484;2022-09-20T06:02:20;8.20;99.90
19220;DHT22;9744;49.364;7.484;2022-09-20T06:04:58;8.20;99.90
19220;DHT22;9744;49.364;7.484;2022-09-20T06:07:36;8.30;99.90
19220;DHT22;9744;49.364;7.484;2022-09-20T06:10:28;8.40;99.90
19220;DHT22;9744;49.364;7.484;2022-09-20T06:13:05;8.40;99.90
19220;DHT22;9744;49.364;7.484;2022-09-20T06:15:44;8.30;99.90
19220;DHT22;9744;49.364;7.484;2022-09-20T06:18:21;8.20;99.90
19220;DHT22;9744;49.364;7.484;2022-09-20T06:20:56;8.20;99.90
19220;DHT22;9744;49.364;7.484;2022-09-20T06:23:26;8.20;99.90
19220;DHT22;9744;49.364;7.484;2022-09-20T06:25:58;8.20;99.90
19220;DHT22;9744;49.364;7.484;2022-09-20T06:28:29;8.30;99.90
19220;DHT22;9744;49.364;7.484;2022-09-20T06:30:59;8.40;99.90
19220;DHT22;9744;49.364;7.484;2022-09-20T06:33:27;8.30;99.90
19220;DHT22;9744;49.364;7.484;2022-09-20T06:35:57;8.40;99.90
19220;DHT22;9744;49.364;7.484;2022-09-20T06:38:53;8.50;99.90
19220;DHT22;9744;49.364;7.484;2022-09-20T06:41:42;8.60;99.90
19220;DHT22;9744;49.364;7.484;2022-09-20T06:44:10;8.70;99.90
19220;DHT22;9744;49.364;7.484;2022-09-20T06:46:37;8.80;99.90
19220;DHT22;9744;49.364;7.484;2022-09-20T06:49:07;8.70;99.90
19220;DHT22;9744;49.364;7.484;2022-09-20T06:51:36;8.80;99.90
19220;DHT22;9744;49.364;7.484;2022-09-20T06:54:05;8.80;99.90
19220;DHT22;9744;49.364;7.484;2022-09-20T06:56:34;8.80;99.90
19220;DHT22;9744;49.364;7.484;2022-09-20T06:59:05;8.80;99.90
19220;DHT22;9744;49.364;7.484;2022-09-20T07:01:33;9.00;99.90
19220;DHT22;9744;49.364;7.484;2022-09-20T07:04:01;9.10;99.90
19220;DHT22;9744;49.364;7.484;2022-09-20T07:06:28;9.40;99.90
19220;DHT22;9744;49.364;7.484;2022-09-20T07:08:55;9.50;99.90
19220;DHT22;9744;49.364;7.484;2022-09-20T07:11:22;9.60;99.90
19220;DHT22;9744;49.364;7.484;2022-09-20T07:13:51;9.90;99.90
19220;DHT22;9744;49.364;7.484;2022-09-20T07:16:20;10.20;99.90
19220;DHT22;9744;49.364;7.484;2022-09-20T07:18:49;10.40;99.90
19220;DHT22;9744;49.364;7.484;2022-09-20T07:21:18;10.60;99.90
19220;DHT22;9744;49.364;7.484;2022-09-20T07:23:46;10.60;99.90
19220;DHT22;9744;49.364;7.484;2022-09-20T07:26:17;10.60;99.90
19220;DHT22;9744;49.364;7.484;2022-09-20T07:28:44;10.70;99.90
19220;DHT22;9744;49.364;7.484;2022-09-20T07:31:11;10.80;99.90
19220;DHT22;9744;49.364;7.484;2022-09-20T07:33:40;10.80;99.90
19220;DHT22;9744;49.364;7.484;2022-09-20T07:36:11;11.00;99.90
19220;DHT22;9744;49.364;7.484;2022-09-20T07:38:38;11.00;99.90
19220;DHT22;9744;49.364;7.484;2022-09-20T07:41:07;11.20;99.90
19220;DHT22;9744;49.364;7.484;2022-09-20T07:43:35;11.30;99.90
19220;DHT22;9744;49.364;7.484;2022-09-20T07:46:02;11.50;99.90
19220;DHT22;9744;49.364;7.484;2022-09-20T07:48:32;11.60;99.90
19220;DHT22;9744;49.364;7.484;2022-09-20T07:51:03;11.80;99.90
19220;DHT22;9744;49.364;7.484;2022-09-20T07:53:31;12.00;99.90
19220;DHT22;9744;49.364;7.484;2022-09-20T07:56:00;12.20;99.90
19220;DHT22;9744;49.364;7.484;2022-09-20T07:58:29;12.30;99.90
19220;DHT22;9744;49.364;7.484;2022-09-20T08:00:58;12.40;99.90
19220;DHT22;9744;49.364;7.484;2022-09-20T08:03:26;12.50;99.90
19220;DHT22;9744;49.364;7.484;2022-09-20T08:05:58;12.60;99.90
19220;DHT22;9744;49.364;7.484;2022-09-20T08:08:27;12.60;99.90
19220;DHT22;9744;49.364;7.484;2022-09-20T08:11:01;12.70;99.90
19220;DHT22;9744;49.364;7.484;2022-09-20T08:13:30;12.70;99.90
19220;DHT22;9744;49.364;7.484;2022-09-20T08:16:00;12.80;99.90
19220;DHT22;9744;49.364;7.484;2022-09-20T08:18:29;12.90;99.90
19220;DHT22;9744;49.364;7.484;2022-09-20T08:20:57;13.00;99.90
19220;DHT22;9744;49.364;7.484;2022-09-20T08:23:34;13.10;99.90
19220;DHT22;9744;49.364;7.484;2022-09-20T08:26:02;13.40;99.90
19220;DHT22;9744;49.364;7.484;2022-09-20T08:28:29;13.50;99.90
19220;DHT22;9744;49.364;7.484;2022-09-20T08:31:01;13.70;99.90
19220;DHT22;9744;49.364;7.484;2022-09-20T08:33:29;13.90;99.90
19220;DHT22;9744;49.364;7.484;2022-09-20T08:35:56;14.00;99.90
19220;DHT22;9744;49.364;7.484;2022-09-20T08:38:23;14.30;99.90
19220;DHT22;9744;49.364;7.484;2022-09-20T08:40:57;14.50;99.90
19220;DHT22;9744;49.364;7.484;2022-09-20T08:43:28;14.70;99.90
19220;DHT22;9744;49.364;7.484;2022-09-20T08:45:58;14.90;99.90
19220;DHT22;9744;49.364;7.484;2022-09-20T08:48:28;15.00;99.90
19220;DHT22;9744;49.364;7.484;2022-09-20T08:50:58;15.10;99.90
19220;DHT22;9744;49.364;7.484;2022-09-20T08:53:26;15.30;99.90
19220;DHT22;9744;49.364;7.484;2022-09-20T08:55:55;15.40;99.90
19220;DHT22;9744;49.364;7.484;2022-09-20T08:58:24;15.50;99.90
19220;DHT22;9744;49.364;7.484;2022-09-20T09:00:53;15.50;99.90
19220;DHT22;9744;49.364;7.484;2022-09-20T09:03:23;15.50;99.90
19220;DHT22;9744;49.364;7.484;2022-09-20T09:05:53;15.50;99.90
19220;DHT22;9744;49.364;7.484;2022-09-20T09:08:25;15.60;99.90
19220;DHT22;9744;49.364;7.484;2022-09-20T09:10:56;15.70;99.90
19220;DHT22;9744;49.364;7.484;2022-09-20T09:13:27;15.80;99.90
19220;DHT22;9744;49.364;7.484;2022-09-20T09:16:00;16.00;99.90
19220;DHT22;9744;49.364;7.484;2022-09-20T09:18:31;16.20;99.90
19220;DHT22;9744;49.364;7.484;2022-09-20T09:21:00;16.40;99.90
19220;DHT22;9744;49.364;7.484;2022-09-20T09:23:30;16.50;99.90
19220;DHT22;9744;49.364;7.484;2022-09-20T09:26:11;16.60;99.90
19220;DHT22;9744;49.364;7.484;2022-09-20T09:28:40;16.70;99.90
19220;DHT22;9744;49.364;7.484;2022-09-20T09:31:18;16.80;99.90
19220;DHT22;9744;49.364;7.484;2022-09-20T09:33:47;16.90;99.90
19220;DHT22;9744;49.364;7.484;2022-09-20T09:36:16;17.10;99.90
19220;DHT22;9744;49.364;7.484;2022-09-20T09:38:47;17.40;99.90
19220;DHT22;9744;49.364;7.484;2022-09-20T09:41:27;17.60;99.90
19220;DHT22;9744;49.364;7.484;2022-09-20T09:43:59;17.80;99.90
19220;DHT22;9744;49.364;7.484;2022-09-20T09:46:30;17.80;99.90
19220;DHT22;9744;49.364;7.484;2022-09-20T09:49:07;17.90;99.90
19220;DHT22;9744;49.364;7.484;2022-09-20T09:51:35;17.90;99.90
19220;DHT22;9744;49.364;7.484;2022-09-20T09:54:04;18.10;99.90
19220;DHT22;9744;49.364;7.484;2022-09-20T09:56:48;18.30;99.90
19220;DHT22;9744;49.364;7.484;2022-09-20T09:59:45;18.60;99.90
19220;DHT22;9744;49.364;7.484;2022-09-20T10:02:27;18.80;99.90
19220;DHT22;9744;49.364;7.484;2022-09-20T10:05:04;18.90;99.90
19220;DHT22;9744;49.364;7.484;2022-09-20T10:07:43;18.90;99.90
19220;DHT22;9744;49.364;7.484;2022-09-20T10:10:20;19.00;99.90
19220;DHT22;9744;49.364;7.484;2022-09-20T10:13:05;19.20;99.90
19220;DHT22;9744;49.364;7.484;2022-09-20T10:15:40;19.30;99.90
19220;DHT22;9744;49.364;7.484;2022-09-20T10:18:29;19.50;99.90
19220;DHT22;9744;49.364;7.484;2022-09-20T10:21:07;19.80;99.90
19220;DHT22;9744;49.364;7.484;2022-09-20T10:23:54;19.90;99.90
19220;DHT22;9744;49.364;7.484;2022-09-20T10:26:43;20.10;99.90
19220;DHT22;9744;49.364;7.484;2022-09-20T10:29:38;20.20;99.90
19220;DHT22;9744;49.364;7.484;2022-09-20T10:32:18;20.30;99.90
19220;DHT22;9744;49.364;7.484;2022-09-20T10:37:47;20.70;99.90
19220;DHT22;9744;49.364;7.484;2022-09-20T10:40:26;20.90;99.90
19220;DHT22;9744;49.364;7.484;2022-09-20T10:43:26;21.00;99.90
19220;DHT22;9744;49.364;7.484;2022-09-20T10:46:05;20.80;99.90
19220;DHT22;9744;49.364;7.484;2022-09-20T10:48:41;20.90;99.90
19220;DHT22;9744;49.364;7.484;2022-09-20T10:51:20;20.80;99.90
19220;DHT22;9744;49.364;7.484;2022-09-20T10:53:58;20.90;99.90
19220;DHT22;9744;49.364;7.484;2022-09-20T10:56:32;20.90;99.90
19220;DHT22;9744;49.364;7.484;2022-09-20T11:02:33;21.20;99.90
19220;DHT22;9744;49.364;7.484;2022-09-20T11:05:28;21.30;99.90
19220;DHT22;9744;49.364;7.484;2022-09-20T11:08:02;21.50;99.90
19220;DHT22;9744;49.364;7.484;2022-09-20T11:10:36;21.40;99.90
19220;DHT22;9744;49.364;7.484;2022-09-20T11:13:19;21.30;99.90
19220;DHT22;9744;49.364;7.484;2022-09-20T11:15:53;21.40;99.90
19220;DHT22;9744;49.364;7.484;2022-09-20T11:18:29;21.50;99.90
19220;DHT22;9744;49.364;7.484;2022-09-20T11:21:02;21.70;99.90
19220;DHT22;9744;49.364;7.484;2022-09-20T11:23:40;21.90;99.90
19220;DHT22;9744;49.364;7.484;2022-09-20T11:26:10;22.10;99.90
19220;DHT22;9744;49.364;7.484;2022-09-20T11:28:45;22.00;99.90
19220;DHT22;9744;49.364;7.484;2022-09-20T11:31:20;21.90;99.90
19220;DHT22;9744;49.364;7.484;2022-09-20T11:33:54;21.80;99.90
19220;DHT22;9744;49.364;7.484;2022-09-20T11:36:27;21.90;99.90
19220;DHT22;9744;49.364;7.484;2022-09-20T11:39:24;22.00;99.90
19220;DHT22;9744;49.364;7.484;2022-09-20T11:41:55;22.20;99.90
19220;DHT22;9744;49.364;7.484;2022-09-20T11:44:25;22.50;99.90
19220;DHT22;9744;49.364;7.484;2022-09-20T11:46:57;22.80;99.90
19220;DHT22;9744;49.364;7.484;2022-09-20T11:49:41;23.00;99.90
19220;DHT22;9744;49.364;7.484;2022-09-20T11:52:42;23.00;99.90
19220;DHT22;9744;49.364;7.484;2022-09-20T11:55:24;22.90;99.90
19220;DHT22;9744;49.364;7.484;2022-09-20T11:58:00;22.60;99.90
19220;DHT22;9744;49.364;7.484;2022-09-20T12:00:29;22.30;99.90
19220;DHT22;9744;49.364;7.484;2022-09-20T12:03:00;22.00;99.90
19220;DHT22;9744;49.364;7.484;2022-09-20T12:05:32;21.60;99.90
19220;DHT22;9744;49.364;7.484;2022-09-20T12:08:02;21.30;99.90
19220;DHT22;9744;49.364;7.484;2022-09-20T12:10:32;20.90;99.90
19220;DHT22;9744;49.364;7.484;2022-09-20T12:13:02;20.70;99.90
19220;DHT22;9744;49.364;7.484;2022-09-20T12:15:32;20.40;99.90
19220;DHT22;9744;49.364;7.484;2022-09-20T12:18:29;20.20;99.90
19220;DHT22;9744;49.364;7.484;2022-09-20T12:21:04;20.00;99.90
19220;DHT22;9744;49.364;7.484;2022-09-20T12:23:47;19.80;99.90
19220;DHT22;9744;49.364;7.484;2022-09-20T12:26:42;19.70;99.90
19220;DHT22;9744;49.364;7.484;2022-09-20T12:32:44;19.30;99.90
19220;DHT22;9744;49.364;7.484;2022-09-20T12:41:27;18.90;99.90
19220;DHT22;9744;49.364;7.484;2022-09-20T12:46:43;18.60;99.90
19220;DHT22;9744;49.364;7.484;2022-09-20T12:49:22;18.60;99.90
19220;DHT22;9744;49.364;7.484;2022-09-20T12:52:31;18.50;99.90
19220;DHT22;9744;49.364;7.484;2022-09-20T12:55:36;18.40;99.90
19220;DHT22;9744;49.364;7.484;2022-09-20T12:58:37;18.40;99.90
19220;DHT22;9744;49.364;7.484;2022-09-20T13:01:26;18.20;99.90
19220;DHT22;9744;49.364;7.484;2022-09-20T13:10:17;17.30;99.90
19220;DHT22;9744;49.364;7.484;2022-09-20T13:12:48;17.10;99.90
19220;DHT22;9744;49.364;7.484;2022-09-20T13:15:19;17.10;99.90
19220;DHT22;9744;49.364;7.484;2022-09-20T13:17:48;16.80;99.90
19220;DHT22;9744;49.364;7.484;2022-09-20T13:20:21;16.90;99.90
19220;DHT22;9744;49.364;7.484;2022-09-20T13:22:52;16.90;99.90
19220;DHT22;9744;49.364;7.484;2022-09-20T13:25:20;16.80;99.90
19220;DHT22;9744;49.364;7.484;2022-09-20T13:27:52;16.80;99.90
19220;DHT22;9744;49.364;7.484;2022-09-20T13:30:25;16.70;99.90
19220;DHT22;9744;49.364;7.484;2022-09-20T13:32:53;16.80;99.90
19220;DHT22;9744;49.364;7.484;2022-09-20T13:35:22;16.70;99.90
19220;DHT22;9744;49.364;7.484;2022-09-20T13:37:55;16.40;99.90
19220;DHT22;9744;49.364;7.484;2022-09-20T13:40:29;16.50;99.90
19220;DHT22;9744;49.364;7.484;2022-09-20T13:43:00;17.10;99.90
19220;DHT22;9744;49.364;7.484;2022-09-20T13:45:29;17.50;99.90
19220;DHT22;9744;49.364;7.484;2022-09-20T13:47:58;17.80;99.90
19220;DHT22;9744;49.364;7.484;2022-09-20T13:50:27;18.00;99.90
19220;DHT22;9744;49.364;7.484;2022-09-20T13:52:58;18.20;99.90
19220;DHT22;9744;49.364;7.484;2022-09-20T13:55:30;18.30;99.90
19220;DHT22;9744;49.364;7.484;2022-09-20T13:58:00;18.40;99.90
19220;DHT22;9744;49.364;7.484;2022-09-20T14:00:30;18.40;99.90
19220;DHT22;9744;49.364;7.484;2022-09-20T14:02:59;18.40;99.90
19220;DHT22;9744;49.364;7.484;2022-09-20T14:05:28;18.30;99.90
19220;DHT22;9744;49.364;7.484;2022-09-20T14:07:56;18.20;99.90
19220;DHT22;9744;49.364;7.484;2022-09-20T14:10:31;18.10;99.90
19220;DHT22;9744;49.364;7.484;2022-09-20T14:13:00;17.90;99.90
19220;DHT22;9744;49.364;7.484;2022-09-20T14:15:33;17.60;99.90
19220;DHT22;9744;49.364;7.484;2022-09-20T14:18:02;17.40;99.90
19220;DHT22;9744;49.364;7.484;2022-09-20T14:20:31;17.20;99.90
19220;DHT22;9744;49.364;7.484;2022-09-20T14:23:00;17.00;99.90
19220;DHT22;9744;49.364;7.484;2022-09-20T14:25:27;16.90;99.90
19220;DHT22;9744;49.364;7.484;2022-09-20T14:28:06;16.90;99.90
19220;DHT22;9744;49.364;7.484;2022-09-20T14:30:36;16.80;99.90
19220;DHT22;9744;49.364;7.484;2022-09-20T14:33:05;16.80;99.90
19220;DHT22;9744;49.364;7.484;2022-09-20T14:35:33;16.80;99.90
19220;DHT22;9744;49.364;7.484;2022-09-20T14:38:06;16.70;99.90
19220;DHT22;9744;49.364;7.484;2022-09-20T14:40:40;16.60;99.90
19220;DHT22;9744;49.364;7.484;2022-09-20T14:43:24;16.60;99.90
19220;DHT22;9744;49.364;7.484;2022-09-20T14:45:56;16.30;99.90
19220;DHT22;9744;49.364;7.484;2022-09-20T14:48:32;16.10;99.90
19220;DHT22;9744;49.364;7.484;2022-09-20T14:51:21;15.90;99.90
19220;DHT22;9744;49.364;7.484;2022-09-20T14:53:52;15.90;99.90
19220;DHT22;9744;49.364;7.484;2022-09-20T14:56:29;16.10;99.90
19220;DHT22;9744;49.364;7.484;2022-09-20T14:59:03;16.20;99.90
19220;DHT22;9744;49.364;7.484;2022-09-20T15:01:34;16.30;99.90
19220;DHT22;9744;49.364;7.484;2022-09-20T15:04:06;16.30;99.90
19220;DHT22;9744;49.364;7.484;2022-09-20T15:06:35;16.30;99.90
19220;DHT22;9744;49.364;7.484;2022-09-20T15:09:03;16.40;99.90
19220;DHT22;9744;49.364;7.484;2022-09-20T15:11:31;16.40;99.90
19220;DHT22;9744;49.364;7.484;2022-09-20T15:13:58;16.40;99.90
19220;DHT22;9744;49.364;7.484;2022-09-20T15:16:26;16.40;99.90
19220;DHT22;9744;49.364;7.484;2022-09-20T15:18:56;16.30;99.90
19220;DHT22;9744;49.364;7.484;2022-09-20T15:21:23;16.30;99.90
19220;DHT22;9744;49.364;7.484;2022-09-20T15:23:50;16.30;99.90
19220;DHT22;9744;49.364;7.484;2022-09-20T15:26:19;16.30;99.90
19220;DHT22;9744;49.364;7.484;2022-09-20T15:28:47;16.30;99.90
19220;DHT22;9744;49.364;7.484;2022-09-20T15:31:15;16.40;99.90
19220;DHT22;9744;49.364;7.484;2022-09-20T15:33:44;16.40;99.90
19220;DHT22;9744;49.364;7.484;2022-09-20T15:36:12;16.30;99.90
19220;DHT22;9744;49.364;7.484;2022-09-20T15:39:05;16.40;99.90
19220;DHT22;9744;49.364;7.484;2022-09-20T15:41:32;16.40;99.90
19220;DHT22;9744;49.364;7.484;2022-09-20T15:44:01;16.40;99.90
19220;DHT22;9744;49.364;7.484;2022-09-20T15:46:29;16.30;99.90
19220;DHT22;9744;49.364;7.484;2022-09-20T15:48:59;16.30;99.90
19220;DHT22;9744;49.364;7.484;2022-09-20T15:51:29;16.30;99.90
19220;DHT22;9744;49.364;7.484;2022-09-20T15:53:58;16.30;99.90
19220;DHT22;9744;49.364;7.484;2022-09-20T15:56:28;16.30;99.90
19220;DHT22;9744;49.364;7.484;2022-09-20T15:58:57;16.30;99.90
19220;DHT22;9744;49.364;7.484;2022-09-20T16:01:26;16.30;99.90
19220;DHT22;9744;49.364;7.484;2022-09-20T16:03:54;16.30;99.90
19220;DHT22;9744;49.364;7.484;2022-09-20T16:06:22;16.20;99.90
19220;DHT22;9744;49.364;7.484;2022-09-20T16:08:51;16.20;99.90
19220;DHT22;9744;49.364;7.484;2022-09-20T16:11:19;16.20;99.90
19220;DHT22;9744;49.364;7.484;2022-09-20T16:13:51;16.10;99.90
19220;DHT22;9744;49.364;7.484;2022-09-20T16:16:19;16.10;99.90
19220;DHT22;9744;49.364;7.484;2022-09-20T16:18:47;16.00;99.90
19220;DHT22;9744;49.364;7.484;2022-09-20T16:21:32;16.00;99.90
19220;DHT22;9744;49.364;7.484;2022-09-20T16:24:01;15.90;99.90
19220;DHT22;9744;49.364;7.484;2022-09-20T16:26:30;15.60;99.90
19220;DHT22;9744;49.364;7.484;2022-09-20T16:29:00;15.30;99.90
19220;DHT22;9744;49.364;7.484;2022-09-20T16:31:35;15.30;99.90
19220;DHT22;9744;49.364;7.484;2022-09-20T16:34:08;15.30;99.90
19220;DHT22;9744;49.364;7.484;2022-09-20T16:36:37;15.30;99.90
19220;DHT22;9744;49.364;7.484;2022-09-20T16:39:07;15.30;99.90
19220;DHT22;9744;49.364;7.484;2022-09-20T16:41:35;15.30;99.90
19220;DHT22;9744;49.364;7.484;2022-09-20T16:44:04;15.40;99.90
19220;DHT22;9744;49.364;7.484;2022-09-20T16:46:31;15.40;99.90
19220;DHT22;9744;49.364;7.484;2022-09-20T16:49:03;15.50;99.90
19220;DHT22;9744;49.364;7.484;2022-09-20T16:51:33;15.50;99.90
19220;DHT22;9744;49.364;7.484;2022-09-20T16:54:02;15.50;99.90
19220;DHT22;9744;49.364;7.484;2022-09-20T16:56:33;15.60;99.90
19220;DHT22;9744;49.364;7.484;2022-09-20T16:59:01;15.60;99.90
19220;DHT22;9744;49.364;7.484;2022-09-20T17:01:29;15.50;99.90
19220;DHT22;9744;49.364;7.484;2022-09-20T17:03:57;15.50;99.90
19220;DHT22;9744;49.364;7.484;2022-09-20T17:06:24;15.40;99.90
19220;DHT22;9744;49.364;7.484;2022-09-20T17:08:55;15.40;99.90
19220;DHT22;9744;49.364;7.484;2022-09-20T17:11:24;15.40;99.90
19220;DHT22;9744;49.364;7.484;2022-09-20T17:13:56;15.50;99.90
19220;DHT22;9744;49.364;7.484;2022-09-20T17:16:25;15.50;99.90
19220;DHT22;9744;49.364;7.484;2022-09-20T17:18:54;15.40;99.90
19220;DHT22;9744;49.364;7.484;2022-09-20T17:21:21;15.20;99.90
19220;DHT22;9744;49.364;7.484;2022-09-20T17:23:51;14.80;99.90
19220;DHT22;9744;49.364;7.484;2022-09-20T17:26:21;14.60;99.90
19220;DHT22;9744;49.364;7.484;2022-09-20T17:28:51;14.60;99.90
19220;DHT22;9744;49.364;7.484;2022-09-20T17:31:23;14.60;99.90
19220;DHT22;9744;49.364;7.484;2022-09-20T17:33:53;14.70;99.90
19220;DHT22;9744;49.364;7.484;2022-09-20T17:36:26;14.80;99.90
19220;DHT22;9744;49.364;7.484;2022-09-20T17:38:55;14.90;99.90